Impacts METAR Board
IDs:

KJFK - New York/Kennedy Int, NY, US

Updated at: 0400 UTC 22 Apr 2018
Potential Impact None Slight Moderate High
Time 21/16Z 21/17Z 21/18Z 21/19Z 21/20Z 21/21Z 21/22Z 21/23Z 22/00Z 22/01Z 22/02Z 22/03Z 22/04Z
Temp55 56 58 60 60 53 50 48 47 45 47 52 52
Dewpt24 22 23 21 25 36 35 37 39 40 42 24 22
Altim30.39 30.36 30.34 30.30 30.28 30.28 30.28 30.28 30.31 30.32 30.34 30.35 30.35
VIS10 10 10 10 10 10 10 10 10 10 10 10 10
CIG-- -- -- -- 250 250 250 250 240 240 250 250 250
CoverSCTSCTSCTSCTBKNBKNBKNBKNBKNBKNBKNBKNBKN
FltCatVFRVFRVFRVFRVFRVFRVFRVFRVFRVFRVFRVFRVFR
WX--------------------------
WDir32033032032025020019019018000320330
WSpd14 12 11 11 10 16 16 17 8 0 0 9 11
WGst20 23 -- 20 -- -- -- -- -- -- -- -- --
Raw hourly METARs
KJFK 211551Z 32014G20KT 10SM SCT250 13/M04 A3039 RMK AO2 SLP290 T01281044
KJFK 211651Z 33012G23KT 10SM SCT250 13/M06 A3036 RMK AO2 SLP281 T01331056
KJFK 211751Z 32011KT 10SM SCT250 14/M05 A3034 RMK AO2 SLP272 T01441050 10150 20067 58027
KJFK 211851Z 32011G20KT 10SM SCT250 16/M06 A3030 RMK AO2 SLP260 T01561061
KJFK 211951Z 25010KT 10SM BKN250 16/M04 A3028 RMK AO2 SLP254 T01561039
KJFK 212051Z 20016KT 10SM BKN250 12/02 A3028 RMK AO2 SLP253 T01170022 56019
KJFK 212151Z 19016KT 10SM BKN250 10/02 A3028 RMK AO2 SLP252 T01000017
KJFK 212251Z 19017KT 10SM BKN250 09/03 A3028 RMK AO2 SLP255 T00890028
KJFK 212351Z 18008KT 10SM BKN240 08/04 A3031 RMK AO2 SLP263 T00830039 10161 20083 53009
KJFK 220051Z 00000KT 10SM BKN240 07/04 A3032 RMK AO2 SLP267 T00720044
KJFK 220151Z 00000KT 10SM BKN250 08/06 A3034 RMK AO2 SLP273 T00830056
KJFK 220251Z 32009KT 10SM BKN250 11/M04 A3035 RMK AO2 SLP276 T01111044 51013
KJFK 220351Z 33011KT 10SM BKN250 11/M06 A3035 RMK AO2 SLP278 T01111056



Page loaded:  04:34 UTC  |   09:34 PM Pacific  |   10:34 PM Mountain  |   11:34 PM Central  |   12:34 AM Eastern

 

ADVISORIES

FORECASTS

FORECASTS

OBSERVATIONS

USER TOOLS

ABOUT US